Time;durP1;ratioP1;P1;durP2;ratioP2;P2;SDS_P1;SDS_P2;PMS_P1;PMS_P2;Temp;Humidity;BMP_temperature;BMP_pressure;BME280_temperature;BME280_humidity;BME280_pressure;Samples;Min_cycle;Max_cycle;Signal;HPM_P1;HPM_P2
2023/10/03 00:01:43;;;;;;;27.83;13.40;;;;;;;;;;5070475;28;20256;-41
2023/10/03 00:04:10;;;;;;;33.97;14.07;;;;;;;;;;5070284;28;20251;-40
2023/10/03 00:06:38;;;;;;;32.40;14.47;;;;;;;;;;5065564;28;20202;-39
2023/10/03 00:09:08;;;;;;;29.17;13.43;;;;;;;;;;5067820;28;20194;-44
2023/10/03 00:11:37;;;;;;;28.37;14.77;;;;;;;;;;5063072;28;20207;-44
2023/10/03 00:14:07;;;;;;;30.93;13.93;;;;;;;;;;5069934;28;20201;-42
2023/10/03 00:16:34;;;;;;;29.97;13.37;;;;;;;;;;5062673;28;20216;-40
2023/10/03 00:19:02;;;;;;;32.10;14.77;;;;;;;;;;5070725;28;20202;-40
2023/10/03 00:21:29;;;;;;;31.57;14.17;;;;;;;;;;5057857;28;20226;-43
2023/10/03 00:23:56;;;;;;;29.73;14.00;;;;;;;;;;5069640;28;20201;-41
2023/10/03 00:26:23;;;;;;;31.53;14.27;;;;;;;;;;5055973;28;20221;-41
2023/10/03 00:28:52;;;;;;;30.20;13.27;;;;;;;;;;5064162;28;20205;-40
2023/10/03 00:31:19;;;;;;;29.83;13.20;;;;;;;;;;5069317;28;20303;-42
2023/10/03 00:33:46;;;;;;;35.23;14.20;;;;;;;;;;5067035;28;20206;-42
2023/10/03 00:36:22;;;;;;;33.47;14.13;;;;;;;;;;5057047;28;20404;-42
2023/10/03 00:38:50;;;;;;;30.43;13.73;;;;;;;;;;5069795;28;20201;-41
2023/10/03 00:41:17;;;;;;;30.70;13.97;;;;;;;;;;5061973;28;20230;-42
2023/10/03 00:43:58;;;;;;;29.97;13.30;;;;;;;;;;5064980;28;20197;-41
2023/10/03 00:46:27;;;;;;;33.40;14.50;;;;;;;;;;5069058;28;20213;-40
2023/10/03 00:48:54;;;;;;;27.37;12.90;;;;;;;;;;5072155;28;20202;-42
2023/10/03 00:51:23;;;;;;;28.97;13.67;;;;;;;;;;5062659;28;20217;-42
2023/10/03 00:53:55;;;;;;;26.93;11.67;;;;;;;;;;5064890;28;20208;-44
2023/10/03 00:56:23;;;;;;;31.70;14.60;;;;;;;;;;5056561;28;20201;-43
2023/10/03 00:58:52;;;;;;;34.00;13.90;;;;;;;;;;5059498;28;20212;-45
2023/10/03 01:01:21;;;;;;;28.60;12.80;;;;;;;;;;5064811;28;20257;-43
2023/10/03 01:03:49;;;;;;;30.07;12.70;;;;;;;;;;5067631;28;20472;-41
2023/10/03 01:06:17;;;;;;;30.90;11.90;;;;;;;;;;5067450;28;20198;-37
2023/10/03 01:08:46;;;;;;;26.80;12.90;;;;;;;;;;5063117;28;20256;-45
2023/10/03 01:11:15;;;;;;;29.33;13.33;;;;;;;;;;5054356;28;20303;-46
2023/10/03 01:13:43;;;;;;;28.53;12.63;;;;;;;;;;5063669;28;20211;-44
2023/10/03 01:16:12;;;;;;;29.67;13.27;;;;;;;;;;5069046;28;20212;-43
2023/10/03 01:18:42;;;;;;;29.53;13.03;;;;;;;;;;5068604;28;20237;-45
2023/10/03 01:21:11;;;;;;;24.50;12.67;;;;;;;;;;5059929;28;20221;-43
2023/10/03 01:23:41;;;;;;;28.93;14.43;;;;;;;;;;5068397;28;20214;-43
2023/10/03 01:26:09;;;;;;;29.57;13.23;;;;;;;;;;5063385;28;20205;-39
2023/10/03 01:28:38;;;;;;;25.23;11.97;;;;;;;;;;5064174;28;20256;-44
2023/10/03 01:31:05;;;;;;;23.70;11.27;;;;;;;;;;5072554;28;20222;-43
2023/10/03 01:33:33;;;;;;;26.60;12.00;;;;;;;;;;5070796;28;20296;-41
2023/10/03 01:36:01;;;;;;;25.60;12.07;;;;;;;;;;5061500;28;20206;-40
2023/10/03 01:38:28;;;;;;;26.53;12.57;;;;;;;;;;5070018;28;20201;-41
2023/10/03 01:40:58;;;;;;;23.53;12.50;;;;;;;;;;5068589;28;20239;-41
2023/10/03 01:43:25;;;;;;;25.73;11.83;;;;;;;;;;5062581;28;20202;-42
2023/10/03 01:45:53;;;;;;;25.97;11.83;;;;;;;;;;5069468;28;20296;-42
2023/10/03 01:48:20;;;;;;;24.27;11.27;;;;;;;;;;5068705;28;20208;-45
2023/10/03 01:50:50;;;;;;;28.37;12.67;;;;;;;;;;5065528;28;20225;-44
2023/10/03 01:53:17;;;;;;;24.33;11.13;;;;;;;;;;5059852;28;20214;-43
2023/10/03 01:55:45;;;;;;;24.87;12.00;;;;;;;;;;5062078;28;20220;-44
2023/10/03 01:58:14;;;;;;;24.57;12.33;;;;;;;;;;5065119;28;20216;-44
2023/10/03 02:00:41;;;;;;;26.27;12.77;;;;;;;;;;5070801;28;20252;-42
2023/10/03 02:03:12;;;;;;;27.43;12.23;;;;;;;;;;5073035;28;20201;-45
2023/10/03 02:05:40;;;;;;;24.53;12.20;;;;;;;;;;5061864;28;20201;-44
2023/10/03 02:08:15;;;;;;;31.33;12.23;;;;;;;;;;5072326;28;20205;-42
2023/10/03 02:10:43;;;;;;;30.03;12.93;;;;;;;;;;5061240;28;20289;-45
2023/10/03 02:13:14;;;;;;;21.53;10.83;;;;;;;;;;5063056;28;20225;-44
2023/10/03 02:15:44;;;;;;;25.40;12.40;;;;;;;;;;5064593;28;20305;-43
2023/10/03 02:18:12;;;;;;;26.40;12.20;;;;;;;;;;5072043;28;20346;-42
2023/10/03 02:20:47;;;;;;;29.63;13.73;;;;;;;;;;5067541;28;20225;-42
2023/10/03 02:23:17;;;;;;;27.93;12.13;;;;;;;;;;5069154;28;20316;-39
2023/10/03 02:25:45;;;;;;;28.03;12.43;;;;;;;;;;5065773;28;20205;-44
2023/10/03 02:28:14;;;;;;;28.93;12.70;;;;;;;;;;5069951;28;20211;-42
2023/10/03 02:30:42;;;;;;;23.87;11.47;;;;;;;;;;5064649;28;20221;-45
2023/10/03 02:33:11;;;;;;;26.47;12.23;;;;;;;;;;5072646;28;20221;-40
2023/10/03 02:35:40;;;;;;;27.17;12.87;;;;;;;;;;5067979;28;20229;-41
2023/10/03 02:38:13;;;;;;;26.30;12.97;;;;;;;;;;5067295;28;21030;-45
2023/10/03 02:40:41;;;;;;;27.03;13.17;;;;;;;;;;5069235;28;20221;-42
2023/10/03 02:43:10;;;;;;;18.07;8.60;;;;;;;;;;5064578;28;20212;-38
2023/10/03 02:45:38;;;;;;;23.30;10.50;;;;;;;;;;5073080;28;20251;-45
2023/10/03 02:48:15;;;;;;;26.23;11.90;;;;;;;;;;5081896;28;20202;-42
2023/10/03 02:50:43;;;;;;;26.63;12.77;;;;;;;;;;5059643;28;20225;-47
2023/10/03 02:53:12;;;;;;;25.27;11.57;;;;;;;;;;5068179;28;20205;-44
2023/10/03 02:55:40;;;;;;;20.27;10.10;;;;;;;;;;5066222;28;20198;-44
2023/10/03 02:58:07;;;;;;;24.63;11.00;;;;;;;;;;5063701;28;20257;-42
2023/10/03 03:00:34;;;;;;;26.57;12.50;;;;;;;;;;5071563;28;20725;-42
2023/10/03 03:03:06;;;;;;;32.80;13.27;;;;;;;;;;5072990;28;20626;-40
2023/10/03 03:05:36;;;;;;;23.40;11.83;;;;;;;;;;5066317;28;20206;-43
2023/10/03 03:08:10;;;;;;;28.13;12.70;;;;;;;;;;5064836;28;20296;-40
2023/10/03 03:10:38;;;;;;;24.17;11.67;;;;;;;;;;5070156;28;20320;-44
2023/10/03 03:13:07;;;;;;;31.53;13.00;;;;;;;;;;5070923;28;20204;-43
2023/10/03 03:15:37;;;;;;;25.03;11.67;;;;;;;;;;5070592;28;20679;-46
2023/10/03 03:18:05;;;;;;;27.73;12.13;;;;;;;;;;5070944;28;20201;-43
2023/10/03 03:20:37;;;;;;;23.60;11.50;;;;;;;;;;5066626;28;20475;-45
2023/10/03 03:23:09;;;;;;;26.00;11.43;;;;;;;;;;5065274;28;20225;-41
2023/10/03 03:25:37;;;;;;;25.10;11.40;;;;;;;;;;5065522;28;20205;-43
2023/10/03 03:28:12;;;;;;;27.03;13.33;;;;;;;;;;5056558;28;20709;-43
2023/10/03 03:30:45;;;;;;;25.93;11.50;;;;;;;;;;5070415;28;20229;-44
2023/10/03 03:33:12;;;;;;;25.60;11.83;;;;;;;;;;5070855;28;20224;-42
2023/10/03 03:35:40;;;;;;;29.53;12.77;;;;;;;;;;5067419;28;20215;-46
2023/10/03 03:38:15;;;;;;;27.40;13.03;;;;;;;;;;5067236;28;20213;-45
2023/10/03 03:40:45;;;;;;;26.40;12.67;;;;;;;;;;5065383;28;20228;-43
2023/10/03 03:43:13;;;;;;;25.17;11.63;;;;;;;;;;5055114;28;20240;-45
2023/10/03 03:45:40;;;;;;;26.40;12.13;;;;;;;;;;5069708;28;20217;-42
2023/10/03 03:48:07;;;;;;;27.03;11.97;;;;;;;;;;5070235;28;20205;-44
2023/10/03 03:50:35;;;;;;;24.93;12.40;;;;;;;;;;5065111;28;20485;-41
2023/10/03 03:53:02;;;;;;;24.23;12.37;;;;;;;;;;5070131;28;20197;-38
2023/10/03 03:55:31;;;;;;;30.40;12.20;;;;;;;;;;5069247;28;20224;-45
2023/10/03 03:58:00;;;;;;;25.97;11.67;;;;;;;;;;5062380;28;20201;-44
2023/10/03 04:00:28;;;;;;;23.30;11.83;;;;;;;;;;5069737;28;20239;-45
2023/10/03 04:02:59;;;;;;;24.63;11.87;;;;;;;;;;5069862;28;20244;-43
2023/10/03 04:05:27;;;;;;;22.50;10.90;;;;;;;;;;5062210;28;20209;-44
2023/10/03 04:07:54;;;;;;;23.57;11.93;;;;;;;;;;5069838;28;20201;-43
2023/10/03 04:10:22;;;;;;;24.73;11.67;;;;;;;;;;5069744;28;20249;-43
2023/10/03 04:12:51;;;;;;;26.20;12.63;;;;;;;;;;5051734;28;20266;-45
2023/10/03 04:15:20;;;;;;;29.00;12.13;;;;;;;;;;5066742;28;20224;-45
2023/10/03 04:17:48;;;;;;;24.80;12.60;;;;;;;;;;5069472;28;20384;-43
2023/10/03 04:20:21;;;;;;;22.97;12.43;;;;;;;;;;5061958;28;20229;-43
2023/10/03 04:22:50;;;;;;;24.50;11.40;;;;;;;;;;5066028;28;20252;-40
2023/10/03 04:25:19;;;;;;;25.17;11.80;;;;;;;;;;5069681;28;20373;-46
2023/10/03 04:27:48;;;;;;;23.83;11.97;;;;;;;;;;5059642;28;20212;-44
2023/10/03 04:30:19;;;;;;;26.00;10.87;;;;;;;;;;5070102;28;20213;-44
2023/10/03 04:32:47;;;;;;;27.27;12.60;;;;;;;;;;5069322;28;20209;-41
2023/10/03 04:35:14;;;;;;;25.50;12.53;;;;;;;;;;5067239;28;20220;-42
2023/10/03 04:37:42;;;;;;;22.07;10.90;;;;;;;;;;5066204;28;20649;-38
2023/10/03 04:40:13;;;;;;;26.27;12.73;;;;;;;;;;5069534;28;20221;-43
2023/10/03 04:42:40;;;;;;;28.10;12.07;;;;;;;;;;5060170;28;20302;-44
2023/10/03 04:45:10;;;;;;;20.07;10.40;;;;;;;;;;5069317;28;20201;-43
2023/10/03 04:47:41;;;;;;;26.57;11.93;;;;;;;;;;5068843;28;20205;-41
2023/10/03 04:50:08;;;;;;;21.33;10.47;;;;;;;;;;5065192;28;20228;-44
2023/10/03 04:52:36;;;;;;;22.87;10.20;;;;;;;;;;5067024;28;20291;-43
2023/10/03 04:55:03;;;;;;;25.37;11.37;;;;;;;;;;5070193;28;20193;-41
2023/10/03 04:57:30;;;;;;;24.40;11.87;;;;;;;;;;5049501;28;20596;-44
2023/10/03 04:59:59;;;;;;;24.77;11.40;;;;;;;;;;5063908;28;20630;-42
2023/10/03 05:02:27;;;;;;;25.33;11.43;;;;;;;;;;5068488;28;20670;-45
2023/10/03 05:04:56;;;;;;;24.20;11.80;;;;;;;;;;5069028;28;20258;-46
2023/10/03 05:07:24;;;;;;;23.43;11.13;;;;;;;;;;5066522;28;20296;-41
2023/10/03 05:09:51;;;;;;;21.40;10.33;;;;;;;;;;5060574;28;20235;-47
2023/10/03 05:12:20;;;;;;;23.90;10.83;;;;;;;;;;5060696;28;20201;-43
2023/10/03 05:14:48;;;;;;;23.23;10.77;;;;;;;;;;5068446;28;20232;-39
2023/10/03 05:17:15;;;;;;;22.30;10.77;;;;;;;;;;5068876;28;20225;-41
2023/10/03 05:19:43;;;;;;;27.13;12.43;;;;;;;;;;5064008;28;20233;-43
2023/10/03 05:22:13;;;;;;;24.80;11.33;;;;;;;;;;5067868;28;20224;-44
2023/10/03 05:24:40;;;;;;;23.37;10.77;;;;;;;;;;5068969;28;20209;-46
2023/10/03 05:27:07;;;;;;;28.40;12.63;;;;;;;;;;5054748;28;20205;-38
2023/10/03 05:29:37;;;;;;;26.17;11.47;;;;;;;;;;5065765;28;20236;-44
2023/10/03 05:32:05;;;;;;;25.57;11.77;;;;;;;;;;5068998;28;20201;-44
2023/10/03 05:34:33;;;;;;;26.03;11.23;;;;;;;;;;5072996;28;20209;-44
2023/10/03 05:37:00;;;;;;;23.37;11.03;;;;;;;;;;5067864;28;20220;-40
2023/10/03 05:39:28;;;;;;;26.90;11.60;;;;;;;;;;5073660;28;20374;-40
2023/10/03 05:41:56;;;;;;;26.60;12.03;;;;;;;;;;5067452;28;20592;-43
2023/10/03 05:44:24;;;;;;;21.77;10.67;;;;;;;;;;5074895;28;20201;-44
2023/10/03 05:46:55;;;;;;;22.90;10.57;;;;;;;;;;5074803;28;20216;-41
2023/10/03 05:49:23;;;;;;;24.70;11.60;;;;;;;;;;5072131;28;20308;-40
2023/10/03 05:51:51;;;;;;;23.10;11.13;;;;;;;;;;5074620;28;20289;-44
2023/10/03 05:54:18;;;;;;;24.07;11.50;;;;;;;;;;5074794;28;20254;-40
2023/10/03 05:56:47;;;;;;;26.77;12.77;;;;;;;;;;5066733;28;20212;-40
2023/10/03 05:59:14;;;;;;;21.90;11.17;;;;;;;;;;5074905;28;20201;-41
2023/10/03 06:01:42;;;;;;;26.10;11.97;;;;;;;;;;5074177;28;20744;-39
2023/10/03 06:04:10;;;;;;;22.40;11.00;;;;;;;;;;5072680;28;20292;-43
2023/10/03 06:06:37;;;;;;;25.50;11.87;;;;;;;;;;5062411;28;20206;-44
2023/10/03 06:09:04;;;;;;;26.80;11.17;;;;;;;;;;5074973;28;20264;-42
2023/10/03 06:11:32;;;;;;;24.30;11.83;;;;;;;;;;5065147;28;20216;-45
2023/10/03 06:14:00;;;;;;;27.17;12.17;;;;;;;;;;5060313;28;20314;-43
2023/10/03 06:16:28;;;;;;;28.73;12.00;;;;;;;;;;5074267;28;20246;-40
2023/10/03 06:18:56;;;;;;;25.83;10.90;;;;;;;;;;5068776;28;20201;-45
2023/10/03 06:21:23;;;;;;;26.43;11.83;;;;;;;;;;5066155;28;20260;-44
2023/10/03 06:23:50;;;;;;;28.90;12.57;;;;;;;;;;5075294;28;20226;-40
2023/10/03 06:26:19;;;;;;;26.80;12.20;;;;;;;;;;5068458;28;20209;-42
2023/10/03 06:28:46;;;;;;;27.90;11.43;;;;;;;;;;5077029;28;20205;-43
2023/10/03 06:31:15;;;;;;;28.53;11.63;;;;;;;;;;5082134;28;20364;-41
2023/10/03 06:33:43;;;;;;;23.03;10.87;;;;;;;;;;5075404;28;20209;-37
2023/10/03 06:36:11;;;;;;;26.57;11.90;;;;;;;;;;5067451;28;20201;-40
2023/10/03 06:38:41;;;;;;;22.37;11.53;;;;;;;;;;5074148;28;20212;-41
2023/10/03 06:41:09;;;;;;;27.43;12.30;;;;;;;;;;5070297;28;20244;-44
2023/10/03 06:43:36;;;;;;;24.90;11.17;;;;;;;;;;5058397;28;20234;-45
2023/10/03 06:46:06;;;;;;;27.07;12.73;;;;;;;;;;5073337;28;20205;-41
2023/10/03 06:48:35;;;;;;;28.50;12.83;;;;;;;;;;5069808;28;20205;-45
2023/10/03 06:51:04;;;;;;;26.03;12.27;;;;;;;;;;5079429;28;20228;-44
2023/10/03 06:53:32;;;;;;;25.60;12.10;;;;;;;;;;5076938;28;20205;-44
2023/10/03 06:56:00;;;;;;;26.30;12.67;;;;;;;;;;5055153;28;20300;-43
2023/10/03 06:58:28;;;;;;;25.30;11.67;;;;;;;;;;5062918;28;20229;-41
2023/10/03 07:00:55;;;;;;;30.10;13.13;;;;;;;;;;5073462;28;20235;-40
2023/10/03 07:03:23;;;;;;;28.20;13.10;;;;;;;;;;5073347;28;20221;-42
2023/10/03 07:05:51;;;;;;;28.20;13.27;;;;;;;;;;5068804;28;20216;-43
2023/10/03 07:08:19;;;;;;;29.53;12.73;;;;;;;;;;5069130;28;20296;-41
2023/10/03 07:10:46;;;;;;;25.57;12.70;;;;;;;;;;5067727;28;20224;-42
2023/10/03 07:13:16;;;;;;;26.07;12.13;;;;;;;;;;5058693;28;20202;-39
2023/10/03 07:15:44;;;;;;;29.20;12.63;;;;;;;;;;5069142;28;20213;-39
2023/10/03 07:18:11;;;;;;;29.17;13.17;;;;;;;;;;5070278;28;20215;-47
2023/10/03 07:20:40;;;;;;;26.20;13.17;;;;;;;;;;5066409;28;20234;-45
2023/10/03 07:23:09;;;;;;;25.30;12.50;;;;;;;;;;5072128;28;20684;-41
2023/10/03 07:25:36;;;;;;;24.80;11.80;;;;;;;;;;5068699;28;20217;-42
2023/10/03 07:28:04;;;;;;;24.83;11.73;;;;;;;;;;5060252;28;20193;-43
2023/10/03 07:30:31;;;;;;;30.33;14.23;;;;;;;;;;5071344;28;20229;-39
2023/10/03 07:32:58;;;;;;;25.53;12.70;;;;;;;;;;5072757;28;20203;-46
2023/10/03 07:35:25;;;;;;;27.13;13.63;;;;;;;;;;5066162;28;20201;-41
2023/10/03 07:37:52;;;;;;;27.43;12.13;;;;;;;;;;5069413;28;20212;-43
2023/10/03 07:40:23;;;;;;;31.50;13.57;;;;;;;;;;5073018;28;20221;-43
2023/10/03 07:42:51;;;;;;;30.90;14.13;;;;;;;;;;5062645;28;20315;-37
2023/10/03 07:45:28;;;;;;;26.47;13.10;;;;;;;;;;5067464;28;20208;-40
2023/10/03 07:47:57;;;;;;;28.47;13.43;;;;;;;;;;5072408;28;20302;-44
2023/10/03 07:50:25;;;;;;;24.70;12.13;;;;;;;;;;5065228;28;20261;-40
2023/10/03 07:52:52;;;;;;;28.47;13.53;;;;;;;;;;5072455;28;20361;-46
2023/10/03 07:55:24;;;;;;;28.47;13.70;;;;;;;;;;5073156;28;20211;-41
2023/10/03 07:57:54;;;;;;;29.53;13.20;;;;;;;;;;5057978;28;20205;-44
2023/10/03 08:00:26;;;;;;;25.70;12.97;;;;;;;;;;5073179;28;20221;-45
2023/10/03 08:02:53;;;;;;;27.33;12.77;;;;;;;;;;5072483;28;20245;-43
2023/10/03 08:05:25;;;;;;;32.33;14.27;;;;;;;;;;5064810;28;20671;-44
2023/10/03 08:07:52;;;;;;;25.97;12.53;;;;;;;;;;5081379;28;20254;-35
2023/10/03 08:10:20;;;;;;;27.33;13.67;;;;;;;;;;5073167;28;20235;-43
2023/10/03 08:12:52;;;;;;;26.83;12.83;;;;;;;;;;5063541;28;20206;-44
2023/10/03 08:15:20;;;;;;;27.97;11.77;;;;;;;;;;5067562;28;20193;-43
2023/10/03 08:17:48;;;;;;;27.10;12.47;;;;;;;;;;5072277;28;20251;-41
2023/10/03 08:20:15;;;;;;;27.83;11.47;;;;;;;;;;5069893;28;20221;-43
2023/10/03 08:22:50;;;;;;;27.63;11.77;;;;;;;;;;5061894;28;20283;-44
2023/10/03 08:25:21;;;;;;;25.30;11.57;;;;;;;;;;5068096;28;20200;-44
2023/10/03 08:27:49;;;;;;;24.90;11.87;;;;;;;;;;5061973;28;20660;-42
2023/10/03 08:33:00;;;;;;;29.13;12.50;;;;;;;;;;5069699;28;20210;-41
2023/10/03 08:35:38;;;;;;;26.10;12.50;;;;;;;;;;5069040;28;20221;-44
2023/10/03 08:38:06;;;;;;;23.00;13.03;;;;;;;;;;5061898;28;20511;-41
2023/10/03 08:40:39;;;;;;;23.57;11.60;;;;;;;;;;5064825;28;20705;-44
2023/10/03 08:43:09;;;;;;;20.70;11.17;;;;;;;;;;5069064;28;20316;-43
2023/10/03 08:45:39;;;;;;;23.43;10.53;;;;;;;;;;5071437;28;20216;-40
2023/10/03 08:48:07;;;;;;;19.33;10.23;;;;;;;;;;5071675;28;20201;-38
2023/10/03 08:50:39;;;;;;;16.37;8.33;;;;;;;;;;5066509;28;20240;-43
2023/10/03 08:53:26;;;;;;;17.97;8.83;;;;;;;;;;5068686;28;20228;-44
2023/10/03 08:55:57;;;;;;;16.13;8.23;;;;;;;;;;5065807;28;20390;-44
2023/10/03 08:58:26;;;;;;;15.80;8.03;;;;;;;;;;5062145;28;20202;-41
2023/10/03 09:00:58;;;;;;;15.70;7.80;;;;;;;;;;5071207;28;20319;-43
2023/10/03 09:03:29;;;;;;;16.93;7.90;;;;;;;;;;5072127;28;20237;-41
2023/10/03 09:05:58;;;;;;;17.77;8.30;;;;;;;;;;5069186;28;20208;-45
2023/10/03 09:08:26;;;;;;;13.07;6.17;;;;;;;;;;5070221;28;20220;-40
2023/10/03 09:10:55;;;;;;;13.00;6.60;;;;;;;;;;5067086;28;20243;-45
2023/10/03 09:13:27;;;;;;;16.03;7.43;;;;;;;;;;5065988;28;20198;-42
2023/10/03 09:16:08;;;;;;;15.20;6.67;;;;;;;;;;5074922;28;20461;-43
2023/10/03 09:18:41;;;;;;;12.03;6.57;;;;;;;;;;5070687;28;20201;-40
2023/10/03 09:21:14;;;;;;;14.40;6.37;;;;;;;;;;5060399;28;20222;-42
2023/10/03 09:23:59;;;;;;;15.50;5.57;;;;;;;;;;5066337;28;20219;-42
2023/10/03 09:26:26;;;;;;;9.03;4.87;;;;;;;;;;5063953;28;20221;-45
2023/10/03 09:28:53;;;;;;;8.40;4.57;;;;;;;;;;5068812;28;20211;-39
2023/10/03 09:31:23;;;;;;;6.97;4.40;;;;;;;;;;5071624;28;20229;-41
2023/10/03 09:34:13;;;;;;;8.00;4.40;;;;;;;;;;5071365;28;20204;-42
2023/10/03 09:36:41;;;;;;;7.60;4.03;;;;;;;;;;5063465;28;20204;-44
2023/10/03 09:39:08;;;;;;;8.10;4.10;;;;;;;;;;5071558;28;20242;-44
2023/10/03 09:41:38;;;;;;;6.00;4.20;;;;;;;;;;5065020;28;20210;-46
2023/10/03 09:44:07;;;;;;;6.53;4.40;;;;;;;;;;5070926;28;20211;-40
2023/10/03 09:46:39;;;;;;;6.53;3.97;;;;;;;;;;5077603;28;20520;-45
2023/10/03 09:49:10;;;;;;;7.63;4.20;;;;;;;;;;5075088;28;20207;-43
2023/10/03 09:51:47;;;;;;;7.87;3.73;;;;;;;;;;5071789;28;20267;-45
2023/10/03 09:54:24;;;;;;;6.40;4.40;;;;;;;;;;5075480;28;20211;-46
2023/10/03 09:56:51;;;;;;;6.47;4.00;;;;;;;;;;5065863;28;20238;-45
2023/10/03 09:59:20;;;;;;;5.83;4.07;;;;;;;;;;5066593;28;20201;-45
2023/10/03 10:01:49;;;;;;;9.57;3.80;;;;;;;;;;5082184;28;20212;-41
2023/10/03 10:04:19;;;;;;;8.87;3.87;;;;;;;;;;5068301;28;20754;-46
2023/10/03 10:06:49;;;;;;;8.20;4.77;;;;;;;;;;5069160;28;20196;-38
2023/10/03 10:09:27;;;;;;;5.07;3.93;;;;;;;;;;5071224;28;20208;-44
2023/10/03 10:12:10;;;;;;;6.60;3.43;;;;;;;;;;5065700;28;20843;-42
2023/10/03 10:14:53;;;;;;;5.03;3.60;;;;;;;;;;5071089;28;20204;-41
2023/10/03 10:17:22;;;;;;;6.80;3.47;;;;;;;;;;5070832;28;20219;-41
2023/10/03 10:20:08;;;;;;;7.40;4.00;;;;;;;;;;5067292;28;20222;-41
2023/10/03 10:22:54;;;;;;;8.53;4.10;;;;;;;;;;5068104;28;20205;-41
2023/10/03 10:25:25;;;;;;;4.37;3.33;;;;;;;;;;5074766;28;20227;-43
2023/10/03 10:28:01;;;;;;;4.60;3.20;;;;;;;;;;5068799;28;20279;-43
2023/10/03 10:30:28;;;;;;;5.53;3.67;;;;;;;;;;5075002;28;20235;-41
2023/10/03 10:33:14;;;;;;;7.40;4.03;;;;;;;;;;5074605;28;20201;-42
2023/10/03 10:35:52;;;;;;;8.40;3.97;;;;;;;;;;5072060;28;20211;-40
2023/10/03 10:38:19;;;;;;;8.07;4.17;;;;;;;;;;5067006;28;20243;-42
2023/10/03 10:41:05;;;;;;;6.23;3.80;;;;;;;;;;5071925;28;20229;-40
2023/10/03 10:43:34;;;;;;;6.80;3.60;;;;;;;;;;5070462;28;20240;-41
2023/10/03 10:46:16;;;;;;;7.87;4.07;;;;;;;;;;5091456;28;20742;-43
2023/10/03 10:48:46;;;;;;;6.20;3.90;;;;;;;;;;5073229;28;20295;-40
2023/10/03 10:51:15;;;;;;;4.70;3.60;;;;;;;;;;5062399;28;20239;-46
2023/10/03 10:53:47;;;;;;;5.93;3.80;;;;;;;;;;5067984;28;20227;-41
2023/10/03 10:56:15;;;;;;;7.50;3.80;;;;;;;;;;5060759;28;20292;-42
2023/10/03 10:58:47;;;;;;;6.93;3.80;;;;;;;;;;5077070;28;20240;-43
2023/10/03 11:01:16;;;;;;;5.07;4.00;;;;;;;;;;5063469;28;20236;-42
2023/10/03 11:03:44;;;;;;;4.43;3.57;;;;;;;;;;5071456;28;20274;-43
2023/10/03 11:06:19;;;;;;;8.03;3.87;;;;;;;;;;5060829;28;20216;-43
2023/10/03 11:08:50;;;;;;;8.93;4.53;;;;;;;;;;5073026;28;20300;-42
2023/10/03 11:11:17;;;;;;;9.93;3.80;;;;;;;;;;5064879;28;20225;-41
2023/10/03 11:13:48;;;;;;;7.47;3.53;;;;;;;;;;5077055;28;20204;-40
2023/10/03 11:16:22;;;;;;;5.78;3.80;;;;;;;;;;5065152;28;20221;-45
2023/10/03 11:18:51;;;;;;;6.57;3.72;;;;;;;;;;5073295;28;20232;-45
2023/10/03 11:21:20;;;;;;;4.80;3.60;;;;;;;;;;5060554;28;20229;-40
2023/10/03 11:24:03;;;;;;;6.50;3.53;;;;;;;;;;5071580;28;20228;-43
2023/10/03 11:26:41;;;;;;;6.18;3.50;;;;;;;;;;5062815;28;20204;-41
2023/10/03 11:29:08;;;;;;;5.00;3.50;;;;;;;;;;5073447;28;20201;-40
2023/10/03 11:31:38;;;;;;;6.32;3.95;;;;;;;;;;5073327;28;20204;-42
2023/10/03 11:34:06;;;;;;;6.32;3.83;;;;;;;;;;5073077;28;20201;-42
2023/10/03 11:36:43;;;;;;;5.00;3.50;;;;;;;;;;5066682;28;20219;-43
2023/10/03 11:39:12;;;;;;;4.90;3.78;;;;;;;;;;5068470;28;20292;-45
2023/10/03 11:41:40;;;;;;;9.32;3.38;;;;;;;;;;5063070;28;20233;-43
2023/10/03 11:44:17;;;;;;;5.65;3.65;;;;;;;;;;5071618;28;20231;-38
2023/10/03 11:46:44;;;;;;;6.00;3.72;;;;;;;;;;5072713;28;20222;-43
2023/10/03 11:49:12;;;;;;;5.50;3.55;;;;;;;;;;5072167;28;20232;-39
2023/10/03 11:51:42;;;;;;;5.15;3.38;;;;;;;;;;5065072;28;20297;-42
2023/10/03 11:54:10;;;;;;;5.93;3.42;;;;;;;;;;5072086;28;20296;-40
2023/10/03 11:56:45;;;;;;;6.32;3.67;;;;;;;;;;5064088;28;20233;-42
2023/10/03 11:59:14;;;;;;;5.13;3.92;;;;;;;;;;5069753;28;20207;-42
2023/10/03 12:01:42;;;;;;;5.63;3.70;;;;;;;;;;5072349;28;20220;-42
2023/10/03 12:04:09;;;;;;;5.35;3.97;;;;;;;;;;5069554;28;20255;-44
2023/10/03 12:06:37;;;;;;;4.07;3.50;;;;;;;;;;5067246;28;20233;-41
2023/10/03 12:09:08;;;;;;;5.30;3.72;;;;;;;;;;5057558;28;20207;-43
2023/10/03 12:11:44;;;;;;;6.63;3.13;;;;;;;;;;5055249;28;20205;-47
2023/10/03 12:14:18;;;;;;;5.47;3.90;;;;;;;;;;5061208;28;20202;-45
2023/10/03 12:16:51;;;;;;;6.55;4.15;;;;;;;;;;5066533;28;20280;-42
2023/10/03 12:19:19;;;;;;;5.53;3.97;;;;;;;;;;5066907;28;20201;-39
2023/10/03 12:21:46;;;;;;;8.98;4.03;;;;;;;;;;5062550;28;20197;-44
2023/10/03 12:24:14;;;;;;;13.18;4.10;;;;;;;;;;5060497;28;20333;-42
2023/10/03 12:26:43;;;;;;;11.80;4.28;;;;;;;;;;5056615;28;20308;-40
2023/10/03 12:29:10;;;;;;;9.10;4.07;;;;;;;;;;5058744;28;20219;-39
2023/10/03 12:31:38;;;;;;;5.53;4.07;;;;;;;;;;5068280;28;20209;-45
2023/10/03 12:34:06;;;;;;;10.00;4.78;;;;;;;;;;5066792;28;20204;-42
2023/10/03 12:36:36;;;;;;;5.28;3.85;;;;;;;;;;5069362;28;20221;-44
2023/10/03 12:39:10;;;;;;;6.10;4.15;;;;;;;;;;5064536;28;20198;-39
2023/10/03 12:41:37;;;;;;;5.83;4.10;;;;;;;;;;5070648;28;20209;-44
2023/10/03 12:44:06;;;;;;;5.63;4.55;;;;;;;;;;5071255;28;20225;-45
2023/10/03 12:46:34;;;;;;;7.78;4.05;;;;;;;;;;5071641;28;20288;-42
2023/10/03 12:49:02;;;;;;;7.30;4.13;;;;;;;;;;5068251;28;20217;-44
2023/10/03 12:51:29;;;;;;;6.28;4.13;;;;;;;;;;5067468;28;20265;-43
2023/10/03 12:53:56;;;;;;;6.05;3.85;;;;;;;;;;5071053;28;20217;-40
2023/10/03 12:56:24;;;;;;;6.85;4.38;;;;;;;;;;5068524;28;20479;-38
2023/10/03 12:58:51;;;;;;;12.18;3.80;;;;;;;;;;5060088;28;20205;-42
2023/10/03 13:01:20;;;;;;;6.03;3.90;;;;;;;;;;5070150;28;20255;-45
2023/10/03 13:03:47;;;;;;;9.40;4.68;;;;;;;;;;5071583;28;20205;-46
2023/10/03 13:06:35;;;;;;;8.05;4.63;;;;;;;;;;5067312;28;20504;-41
2023/10/03 13:09:07;;;;;;;7.63;5.15;;;;;;;;;;5068309;28;20217;-42
2023/10/03 13:11:35;;;;;;;7.82;4.65;;;;;;;;;;5065363;28;20224;-43
2023/10/03 13:14:06;;;;;;;8.75;4.85;;;;;;;;;;5068299;28;20212;-46
2023/10/03 13:16:35;;;;;;;8.35;4.50;;;;;;;;;;5070985;28;20213;-44
2023/10/03 13:19:06;;;;;;;9.27;5.00;;;;;;;;;;5069876;28;20280;-41
2023/10/03 13:21:36;;;;;;;6.22;3.95;;;;;;;;;;5061480;28;20727;-43
2023/10/03 13:24:03;;;;;;;8.52;4.30;;;;;;;;;;5071200;28;20212;-41
2023/10/03 13:26:31;;;;;;;5.47;3.80;;;;;;;;;;5063933;28;20300;-38
2023/10/03 13:28:59;;;;;;;6.70;4.53;;;;;;;;;;5076749;28;20232;-45
2023/10/03 13:31:28;;;;;;;7.97;4.50;;;;;;;;;;5071764;28;20374;-45
2023/10/03 13:34:08;;;;;;;9.13;5.10;;;;;;;;;;5072273;28;20203;-41
2023/10/03 13:36:35;;;;;;;7.30;4.72;;;;;;;;;;5061607;28;20210;-44
2023/10/03 13:39:05;;;;;;;8.40;4.28;;;;;;;;;;5067260;28;20641;-46
2023/10/03 13:41:32;;;;;;;6.85;4.57;;;;;;;;;;5065436;28;20209;-39
2023/10/03 13:43:59;;;;;;;6.65;3.92;;;;;;;;;;5064931;28;20205;-43
2023/10/03 13:46:26;;;;;;;7.68;4.30;;;;;;;;;;5071147;28;20292;-44
2023/10/03 13:48:55;;;;;;;6.07;4.40;;;;;;;;;;5070388;28;20205;-45
2023/10/03 13:51:24;;;;;;;5.57;4.18;;;;;;;;;;5065773;28;20233;-43
2023/10/03 13:53:51;;;;;;;5.40;4.00;;;;;;;;;;5071150;28;20197;-38
2023/10/03 13:56:18;;;;;;;9.07;4.53;;;;;;;;;;5067150;28;20201;-40
2023/10/03 13:58:49;;;;;;;8.60;4.47;;;;;;;;;;5065873;28;20208;-45
2023/10/03 14:01:18;;;;;;;8.80;5.00;;;;;;;;;;5075236;28;20235;-45
2023/10/03 14:03:46;;;;;;;7.33;4.30;;;;;;;;;;5075220;28;20211;-42
2023/10/03 14:06:16;;;;;;;7.80;4.43;;;;;;;;;;5065492;28;20225;-40
2023/10/03 14:08:44;;;;;;;9.10;4.77;;;;;;;;;;5074513;28;20725;-42
2023/10/03 14:11:12;;;;;;;8.85;4.68;;;;;;;;;;5071963;28;20304;-44
2023/10/03 14:13:41;;;;;;;8.60;4.47;;;;;;;;;;5070937;28;20648;-42
2023/10/03 14:16:08;;;;;;;12.07;5.17;;;;;;;;;;5074761;28;20296;-41
2023/10/03 14:18:36;;;;;;;8.97;4.87;;;;;;;;;;5072384;28;20213;-45
2023/10/03 14:21:10;;;;;;;4.93;4.43;;;;;;;;;;5062867;28;20310;-43
2023/10/03 14:23:37;;;;;;;5.63;3.60;;;;;;;;;;5068214;28;20274;-41
2023/10/03 14:26:05;;;;;;;7.93;5.40;;;;;;;;;;5065217;28;20679;-42
2023/10/03 14:28:33;;;;;;;11.50;4.83;;;;;;;;;;5069456;28;20201;-41
2023/10/03 14:31:01;;;;;;;5.53;4.30;;;;;;;;;;5074352;28;20220;-43
2023/10/03 14:33:28;;;;;;;7.45;3.63;;;;;;;;;;5074507;28;20205;-44
2023/10/03 14:35:59;;;;;;;9.65;3.22;;;;;;;;;;5065711;28;20200;-45
2023/10/03 14:38:31;;;;;;;4.63;4.03;;;;;;;;;;5071401;28;20223;-42
2023/10/03 14:40:58;;;;;;;5.25;4.05;;;;;;;;;;5066879;28;20290;-43
2023/10/03 14:43:27;;;;;;;5.88;4.45;;;;;;;;;;5067830;28;20319;-43